createdAt,value
2022-10-05T00:05:41.169Z,17
2022-10-05T00:11:46.989Z,17
2022-10-05T00:17:19.757Z,16.9
2022-10-05T00:22:54.443Z,16.9
2022-10-05T00:28:32.063Z,16.8
2022-10-05T00:34:07.743Z,16.8
2022-10-05T00:40:12.115Z,16.7
2022-10-05T00:45:49.647Z,16.7
2022-10-05T00:51:39.158Z,16.7
2022-10-05T00:57:24.996Z,16.6
2022-10-05T01:03:01.569Z,16.6
2022-10-05T01:08:52.195Z,16.5
2022-10-05T01:14:50.820Z,16.5
2022-10-05T01:20:41.729Z,16.4
2022-10-05T01:26:21.808Z,16.3
2022-10-05T01:31:57.048Z,16.3
2022-10-05T01:37:34.057Z,16.3
2022-10-05T01:43:08.869Z,16.2
2022-10-05T01:48:59.842Z,16.2
2022-10-05T01:54:37.423Z,16.2
2022-10-05T02:00:20.757Z,16.2
2022-10-05T02:06:08.473Z,16.2
2022-10-05T02:12:17.602Z,16.1
2022-10-05T02:18:17.787Z,16
2022-10-05T02:24:12.432Z,16
2022-10-05T02:30:01.189Z,16
2022-10-05T02:35:36.088Z,15.9
2022-10-05T02:41:14.161Z,15.9
2022-10-05T02:47:09.998Z,15.8
2022-10-05T02:52:44.711Z,15.8
2022-10-05T02:59:04.132Z,15.7
2022-10-05T03:04:47.900Z,15.7
2022-10-05T03:10:46.282Z,15.6
2022-10-05T03:16:24.913Z,15.6
2022-10-05T03:22:01.246Z,15.5
2022-10-05T03:27:37.207Z,15.5
2022-10-05T03:34:16.732Z,15.5
2022-10-05T03:40:01.182Z,15.4
2022-10-05T03:45:56.929Z,15.3
2022-10-05T03:51:41.180Z,15.3
2022-10-05T03:57:16.154Z,15.3
2022-10-05T04:02:54.211Z,15.3
2022-10-05T04:08:31.167Z,15.2
2022-10-05T04:14:49.291Z,15.2
2022-10-05T04:20:24.233Z,15.2
2022-10-05T04:26:03.136Z,15.2
2022-10-05T04:31:47.185Z,15.1
2022-10-05T04:37:23.394Z,15.1
2022-10-05T04:43:08.675Z,15
2022-10-05T04:48:43.929Z,15
2022-10-05T04:54:39.754Z,15
2022-10-05T05:00:19.263Z,15
2022-10-05T05:06:40.211Z,15
2022-10-05T05:12:16.320Z,14.9
2022-10-05T05:17:59.468Z,14.9
2022-10-05T05:23:43.192Z,14.8
2022-10-05T05:29:19.239Z,14.8
2022-10-05T05:34:54.169Z,14.8
2022-10-05T05:40:35.907Z,14.7
2022-10-05T05:46:51.501Z,14.7
2022-10-05T05:52:59.874Z,14.7
2022-10-05T05:58:34.973Z,14.6
2022-10-05T06:04:33.068Z,13.7
2022-10-05T06:10:08.081Z,13.1
2022-10-05T06:16:19.843Z,13
2022-10-05T06:21:57.703Z,13.2
2022-10-05T06:27:37.280Z,13
2022-10-05T06:33:12.597Z,12.9
2022-10-05T06:38:52.521Z,12.9
2022-10-05T06:44:27.520Z,13.1
2022-10-05T06:50:08.841Z,13.2
2022-10-05T06:55:59.061Z,13.2
2022-10-05T07:01:34.033Z,13.3
2022-10-05T07:07:32.326Z,13.4
2022-10-05T07:13:41.045Z,13.7
2022-10-05T07:19:15.909Z,14.1
2022-10-05T07:24:52.045Z,14.2
2022-10-05T07:30:27.053Z,14.4
2022-10-05T07:36:03.516Z,14.7
2022-10-05T07:41:38.866Z,14.8
2022-10-05T07:47:13.861Z,14.9
2022-10-05T07:52:49.103Z,15.1
2022-10-05T07:58:24.338Z,15.3
2022-10-05T08:03:59.105Z,15.4
2022-10-05T08:09:35.706Z,15.7
2022-10-05T08:15:10.766Z,16
2022-10-05T08:20:45.651Z,16.3
2022-10-05T08:26:20.416Z,16.5
2022-10-05T08:31:57.025Z,16.8
2022-10-05T08:37:32.152Z,17.1
2022-10-05T08:43:08.570Z,17.4
2022-10-05T08:48:44.270Z,17.7
2022-10-05T08:54:19.139Z,18
2022-10-05T08:59:54.088Z,18.3
2022-10-05T09:05:34.709Z,18.5
2022-10-05T09:11:31.578Z,18.8
2022-10-05T09:17:04.314Z,19.1
2022-10-05T09:22:39.339Z,19.3
2022-10-05T09:28:14.252Z,19.6
2022-10-05T09:33:50.648Z,19.9
2022-10-05T09:39:27.228Z,20.2
2022-10-05T09:45:10.945Z,20.4
2022-10-05T09:50:46.057Z,20.7
2022-10-05T09:56:21.330Z,20.9
2022-10-05T10:01:57.196Z,21.1
2022-10-05T10:07:36.641Z,21.4
2022-10-05T10:14:08.752Z,21.8
2022-10-05T10:19:41.873Z,21.9
2022-10-05T10:25:18.789Z,22.2
2022-10-05T10:30:54.865Z,22.5
2022-10-05T10:36:30.594Z,22.8
2022-10-05T10:42:07.074Z,22.9
2022-10-05T10:47:42.688Z,23.1
2022-10-05T10:53:18.256Z,23.3
2022-10-05T10:58:53.270Z,23.5
2022-10-05T11:04:29.852Z,23.7
2022-10-05T11:10:05.690Z,24.1
2022-10-05T11:15:44.024Z,24.3
2022-10-05T11:21:21.344Z,24.5
2022-10-05T11:26:56.354Z,24.7
2022-10-05T11:32:31.552Z,25
2022-10-05T11:38:09.163Z,25.2
2022-10-05T11:43:44.044Z,25.4
2022-10-05T11:49:19.573Z,25.6
2022-10-05T11:55:11.580Z,25.8
2022-10-05T12:00:48.932Z,26
2022-10-05T12:06:24.603Z,26.2
2022-10-05T12:12:21.593Z,24.4
2022-10-05T12:17:54.684Z,23.9
2022-10-05T12:23:34.766Z,23.9
2022-10-05T12:29:09.600Z,24.1
2022-10-05T12:35:01.594Z,24.3
2022-10-05T12:41:10.795Z,24.5
2022-10-05T12:46:53.772Z,24.7
2022-10-05T12:52:37.759Z,24.9
2022-10-05T12:58:14.140Z,25.2
2022-10-05T13:04:00.179Z,25.4
2022-10-05T13:09:56.103Z,25.6
2022-10-05T13:15:35.719Z,25.8
2022-10-05T13:21:11.007Z,26
2022-10-05T13:26:46.703Z,26.2
2022-10-05T13:32:34.424Z,26.5
2022-10-05T13:38:10.757Z,26.7
2022-10-05T13:43:45.647Z,26.9
2022-10-05T13:49:20.588Z,27.1
2022-10-05T13:55:26.181Z,27.3
2022-10-05T14:01:35.473Z,27.5
2022-10-05T14:07:23.862Z,27.6
2022-10-05T14:13:21.111Z,27.8
2022-10-05T14:18:55.166Z,28
2022-10-05T14:24:45.340Z,28.1
2022-10-05T14:30:29.956Z,28.3
2022-10-05T14:36:07.103Z,28.4
2022-10-05T14:41:46.796Z,28.5
2022-10-05T14:48:08.214Z,28.6
2022-10-05T14:53:58.939Z,28.4
2022-10-05T14:59:35.280Z,27.9
2022-10-05T15:05:16.306Z,27.5
2022-10-05T15:11:13.086Z,27.2
2022-10-05T15:16:45.953Z,26.9
2022-10-05T15:22:27.237Z,26.7
2022-10-05T15:28:02.152Z,26.6
2022-10-05T15:33:38.890Z,26.5
2022-10-05T15:39:27.279Z,26.3
2022-10-05T15:45:01.795Z,26
2022-10-05T15:51:18.965Z,25.8
2022-10-05T15:56:53.822Z,25.6
2022-10-05T16:02:31.833Z,25.5
2022-10-05T16:08:08.858Z,25.3
2022-10-05T16:14:10.119Z,25
2022-10-05T16:19:43.003Z,24.9
2022-10-05T16:25:39.024Z,24.9
2022-10-05T16:31:17.756Z,25
2022-10-05T16:37:02.735Z,24.7
2022-10-05T16:42:41.791Z,24.3
2022-10-05T16:48:19.901Z,23.7
2022-10-05T16:53:57.914Z,23.1
2022-10-05T16:59:53.662Z,22.5
2022-10-05T17:05:35.490Z,22.3
2022-10-05T17:11:18.023Z,21.9
2022-10-05T17:16:53.066Z,21.4
2022-10-05T17:22:29.724Z,20.9
2022-10-05T17:28:06.082Z,20.4
2022-10-05T17:33:46.631Z,20.2
2022-10-05T17:39:21.487Z,20.1
2022-10-05T17:44:56.222Z,20
2022-10-05T17:50:31.002Z,19.9
2022-10-05T17:56:06.178Z,19.9
2022-10-05T18:01:41.081Z,19.7
2022-10-05T18:07:17.648Z,19.5
2022-10-05T18:12:52.440Z,19.5
2022-10-05T18:18:28.042Z,19.5
2022-10-05T18:24:03.315Z,19.4
2022-10-05T18:29:38.071Z,19.3
2022-10-05T18:35:13.187Z,18.9
2022-10-05T18:40:48.462Z,19.1
2022-10-05T18:46:24.395Z,19
2022-10-05T18:52:01.513Z,18.9
2022-10-05T18:57:39.110Z,19.5
2022-10-05T19:03:14.207Z,19.8
2022-10-05T19:08:50.185Z,19.9
2022-10-05T19:14:28.273Z,20
2022-10-05T19:20:03.673Z,20
2022-10-05T19:25:38.361Z,20.1
2022-10-05T19:31:14.717Z,20.1
2022-10-05T19:36:50.925Z,20.1
2022-10-05T19:42:25.765Z,20.1
2022-10-05T19:48:00.840Z,20.1
2022-10-05T19:53:36.756Z,20.1
2022-10-05T19:59:20.664Z,20.1
2022-10-05T20:04:55.609Z,20
2022-10-05T20:10:31.343Z,20
2022-10-05T20:16:07.709Z,20
2022-10-05T20:21:44.277Z,19.9
2022-10-05T20:27:40.121Z,19.9
2022-10-05T20:33:15.939Z,19.9
2022-10-05T20:38:53.443Z,19.9
2022-10-05T20:44:38.741Z,19.9
2022-10-05T20:50:13.541Z,19.9
2022-10-05T20:55:48.340Z,19.9
2022-10-05T21:01:23.519Z,19.9
2022-10-05T21:06:59.137Z,19.8
2022-10-05T21:12:34.533Z,19.8
2022-10-05T21:18:10.939Z,19.8
2022-10-05T21:23:45.838Z,19.8
2022-10-05T21:29:20.917Z,19.8
2022-10-05T21:34:57.159Z,19.8
2022-10-05T21:40:35.278Z,19.8
2022-10-05T21:46:10.263Z,19.7
2022-10-05T21:51:52.034Z,19.6
2022-10-05T21:57:29.995Z,19.5
2022-10-05T22:03:04.802Z,19.4
2022-10-05T22:08:40.344Z,19.3
2022-10-05T22:14:16.282Z,19.2
2022-10-05T22:19:51.208Z,19.2
2022-10-05T22:25:26.383Z,19.1
2022-10-05T22:31:01.187Z,19
2022-10-05T22:36:57.373Z,19
2022-10-05T22:42:33.088Z,18.9
2022-10-05T22:48:10.994Z,18.8
2022-10-05T22:53:49.902Z,18.8
2022-10-05T22:59:25.862Z,18.7
2022-10-05T23:05:00.772Z,18.7
2022-10-05T23:10:41.594Z,18.6
2022-10-05T23:16:23.357Z,18.6
2022-10-05T23:21:59.031Z,18.5
2022-10-05T23:27:34.949Z,18.5
2022-10-05T23:33:09.878Z,18.4
2022-10-05T23:38:45.253Z,18.4
2022-10-05T23:44:20.196Z,18.3
2022-10-05T23:49:54.934Z,18.3
2022-10-05T23:55:29.911Z,18.4
